sensor_id;sensor_type;location;lat;lon;timestamp;P1;durP1;ratioP1;P2;durP2;ratioP2
22219;SDS011;11279;48.364;10.904;2023-10-31T00:00:29;5.80;;;4.10;;
22219;SDS011;11279;48.364;10.904;2023-10-31T00:01:30;5.60;;;3.73;;
22219;SDS011;11279;48.364;10.904;2023-10-31T00:02:30;5.13;;;3.80;;
22219;SDS011;11279;48.364;10.904;2023-10-31T00:03:31;5.67;;;3.60;;
22219;SDS011;11279;48.364;10.904;2023-10-31T00:04:32;5.33;;;3.80;;
22219;SDS011;11279;48.364;10.904;2023-10-31T00:05:32;6.00;;;3.47;;
22219;SDS011;11279;48.364;10.904;2023-10-31T00:06:33;5.00;;;3.67;;
22219;SDS011;11279;48.364;10.904;2023-10-31T00:07:33;4.73;;;3.57;;
22219;SDS011;11279;48.364;10.904;2023-10-31T00:08:34;5.63;;;3.70;;
22219;SDS011;11279;48.364;10.904;2023-10-31T00:09:34;4.30;;;3.30;;
22219;SDS011;11279;48.364;10.904;2023-10-31T00:10:34;5.10;;;3.33;;
22219;SDS011;11279;48.364;10.904;2023-10-31T00:11:35;4.43;;;3.33;;
22219;SDS011;11279;48.364;10.904;2023-10-31T00:12:35;3.33;;;2.67;;
22219;SDS011;11279;48.364;10.904;2023-10-31T00:13:36;4.40;;;3.00;;
22219;SDS011;11279;48.364;10.904;2023-10-31T00:14:37;5.33;;;3.17;;
22219;SDS011;11279;48.364;10.904;2023-10-31T00:15:39;9.27;;;3.75;;
22219;SDS011;11279;48.364;10.904;2023-10-31T00:16:40;4.30;;;2.93;;
22219;SDS011;11279;48.364;10.904;2023-10-31T00:17:40;3.67;;;2.83;;
22219;SDS011;11279;48.364;10.904;2023-10-31T00:18:40;3.80;;;2.60;;
22219;SDS011;11279;48.364;10.904;2023-10-31T00:19:41;6.80;;;3.60;;
22219;SDS011;11279;48.364;10.904;2023-10-31T00:20:41;5.33;;;2.80;;
22219;SDS011;11279;48.364;10.904;2023-10-31T00:21:42;3.70;;;2.70;;
22219;SDS011;11279;48.364;10.904;2023-10-31T00:22:42;3.43;;;2.53;;
22219;SDS011;11279;48.364;10.904;2023-10-31T00:23:43;3.93;;;2.63;;
22219;SDS011;11279;48.364;10.904;2023-10-31T00:24:44;3.05;;;2.53;;
22219;SDS011;11279;48.364;10.904;2023-10-31T00:25:45;3.47;;;2.57;;
22219;SDS011;11279;48.364;10.904;2023-10-31T00:26:45;4.23;;;2.40;;
22219;SDS011;11279;48.364;10.904;2023-10-31T00:27:46;3.70;;;2.40;;
22219;SDS011;11279;48.364;10.904;2023-10-31T00:28:46;4.03;;;2.20;;
22219;SDS011;11279;48.364;10.904;2023-10-31T00:29:47;2.80;;;2.07;;
22219;SDS011;11279;48.364;10.904;2023-10-31T00:30:47;4.70;;;2.33;;
22219;SDS011;11279;48.364;10.904;2023-10-31T00:31:48;3.70;;;1.90;;
22219;SDS011;11279;48.364;10.904;2023-10-31T00:32:48;2.57;;;2.10;;
22219;SDS011;11279;48.364;10.904;2023-10-31T00:33:49;3.23;;;2.10;;
22219;SDS011;11279;48.364;10.904;2023-10-31T00:34:49;2.33;;;1.67;;
22219;SDS011;11279;48.364;10.904;2023-10-31T00:35:49;1.70;;;1.60;;
22219;SDS011;11279;48.364;10.904;2023-10-31T00:36:50;2.20;;;1.87;;
22219;SDS011;11279;48.364;10.904;2023-10-31T00:37:50;3.10;;;1.63;;
22219;SDS011;11279;48.364;10.904;2023-10-31T00:38:51;1.90;;;1.70;;
22219;SDS011;11279;48.364;10.904;2023-10-31T00:39:51;2.60;;;1.90;;
22219;SDS011;11279;48.364;10.904;2023-10-31T00:40:52;2.40;;;1.67;;
22219;SDS011;11279;48.364;10.904;2023-10-31T00:41:52;2.37;;;1.70;;
22219;SDS011;11279;48.364;10.904;2023-10-31T00:42:52;2.43;;;1.50;;
22219;SDS011;11279;48.364;10.904;2023-10-31T00:43:54;1.75;;;1.50;;
22219;SDS011;11279;48.364;10.904;2023-10-31T00:44:54;2.07;;;1.60;;
22219;SDS011;11279;48.364;10.904;2023-10-31T00:45:54;1.93;;;1.50;;
22219;SDS011;11279;48.364;10.904;2023-10-31T00:46:55;1.50;;;1.40;;
22219;SDS011;11279;48.364;10.904;2023-10-31T00:47:56;3.63;;;1.67;;
22219;SDS011;11279;48.364;10.904;2023-10-31T00:48:56;2.10;;;1.53;;
22219;SDS011;11279;48.364;10.904;2023-10-31T00:49:57;2.78;;;1.52;;
22219;SDS011;11279;48.364;10.904;2023-10-31T00:50:57;1.40;;;1.30;;
22219;SDS011;11279;48.364;10.904;2023-10-31T00:51:58;1.70;;;1.30;;
22219;SDS011;11279;48.364;10.904;2023-10-31T00:52:58;3.57;;;1.57;;
22219;SDS011;11279;48.364;10.904;2023-10-31T00:53:59;3.47;;;1.40;;
22219;SDS011;11279;48.364;10.904;2023-10-31T00:54:59;1.83;;;1.40;;
22219;SDS011;11279;48.364;10.904;2023-10-31T00:56:00;1.93;;;1.40;;
22219;SDS011;11279;48.364;10.904;2023-10-31T00:57:00;1.30;;;1.20;;
22219;SDS011;11279;48.364;10.904;2023-10-31T00:58:00;1.30;;;1.20;;
22219;SDS011;11279;48.364;10.904;2023-10-31T00:59:01;1.70;;;1.33;;
22219;SDS011;11279;48.364;10.904;2023-10-31T01:00:02;1.67;;;1.23;;
22219;SDS011;11279;48.364;10.904;2023-10-31T01:01:02;1.40;;;1.30;;
22219;SDS011;11279;48.364;10.904;2023-10-31T01:02:03;3.50;;;1.50;;
22219;SDS011;11279;48.364;10.904;2023-10-31T01:03:04;2.33;;;1.53;;
22219;SDS011;11279;48.364;10.904;2023-10-31T01:04:04;1.60;;;1.30;;
22219;SDS011;11279;48.364;10.904;2023-10-31T01:05:05;1.20;;;1.10;;
22219;SDS011;11279;48.364;10.904;2023-10-31T01:06:05;1.37;;;1.20;;
22219;SDS011;11279;48.364;10.904;2023-10-31T01:07:06;2.90;;;1.10;;
22219;SDS011;11279;48.364;10.904;2023-10-31T01:08:06;1.07;;;1.00;;
22219;SDS011;11279;48.364;10.904;2023-10-31T01:09:07;2.27;;;0.90;;
22219;SDS011;11279;48.364;10.904;2023-10-31T01:10:08;1.10;;;1.10;;
22219;SDS011;11279;48.364;10.904;2023-10-31T01:11:08;1.50;;;1.37;;
22219;SDS011;11279;48.364;10.904;2023-10-31T01:12:09;2.43;;;1.67;;
22219;SDS011;11279;48.364;10.904;2023-10-31T01:13:11;1.50;;;1.10;;
22219;SDS011;11279;48.364;10.904;2023-10-31T01:14:11;1.07;;;0.97;;
22219;SDS011;11279;48.364;10.904;2023-10-31T01:15:11;1.33;;;1.10;;
22219;SDS011;11279;48.364;10.904;2023-10-31T01:16:12;0.90;;;0.90;;
22219;SDS011;11279;48.364;10.904;2023-10-31T01:17:12;0.90;;;0.90;;
22219;SDS011;11279;48.364;10.904;2023-10-31T01:18:13;2.00;;;1.00;;
22219;SDS011;11279;48.364;10.904;2023-10-31T01:19:14;1.20;;;1.10;;
22219;SDS011;11279;48.364;10.904;2023-10-31T01:20:14;1.10;;;0.90;;
22219;SDS011;11279;48.364;10.904;2023-10-31T01:21:14;1.47;;;1.30;;
22219;SDS011;11279;48.364;10.904;2023-10-31T01:22:15;2.57;;;1.53;;
22219;SDS011;11279;48.364;10.904;2023-10-31T01:23:15;1.60;;;1.30;;
22219;SDS011;11279;48.364;10.904;2023-10-31T01:24:16;2.73;;;1.67;;
22219;SDS011;11279;48.364;10.904;2023-10-31T01:25:16;2.63;;;1.20;;
22219;SDS011;11279;48.364;10.904;2023-10-31T01:26:17;1.37;;;1.27;;
22219;SDS011;11279;48.364;10.904;2023-10-31T01:27:17;2.27;;;1.40;;
22219;SDS011;11279;48.364;10.904;2023-10-31T01:28:17;1.17;;;1.10;;
22219;SDS011;11279;48.364;10.904;2023-10-31T01:29:18;2.37;;;1.23;;
22219;SDS011;11279;48.364;10.904;2023-10-31T01:30:19;1.37;;;1.27;;
22219;SDS011;11279;48.364;10.904;2023-10-31T01:31:19;1.40;;;1.30;;
22219;SDS011;11279;48.364;10.904;2023-10-31T01:32:20;1.23;;;1.13;;
22219;SDS011;11279;48.364;10.904;2023-10-31T01:33:20;3.73;;;1.40;;
22219;SDS011;11279;48.364;10.904;2023-10-31T01:34:20;1.30;;;1.20;;
22219;SDS011;11279;48.364;10.904;2023-10-31T01:35:21;1.93;;;1.30;;
22219;SDS011;11279;48.364;10.904;2023-10-31T01:36:25;1.93;;;1.27;;
22219;SDS011;11279;48.364;10.904;2023-10-31T01:37:26;1.58;;;1.40;;
22219;SDS011;11279;48.364;10.904;2023-10-31T01:38:27;1.40;;;1.20;;
22219;SDS011;11279;48.364;10.904;2023-10-31T01:39:27;1.53;;;1.33;;
22219;SDS011;11279;48.364;10.904;2023-10-31T01:40:28;1.37;;;1.27;;
22219;SDS011;11279;48.364;10.904;2023-10-31T01:41:28;1.40;;;1.30;;
22219;SDS011;11279;48.364;10.904;2023-10-31T01:42:29;2.97;;;1.50;;
22219;SDS011;11279;48.364;10.904;2023-10-31T01:43:33;1.53;;;1.13;;
22219;SDS011;11279;48.364;10.904;2023-10-31T01:44:37;1.55;;;1.45;;
22219;SDS011;11279;48.364;10.904;2023-10-31T01:45:38;1.60;;;1.30;;
22219;SDS011;11279;48.364;10.904;2023-10-31T01:46:38;2.07;;;1.20;;
22219;SDS011;11279;48.364;10.904;2023-10-31T01:47:38;1.40;;;1.30;;
22219;SDS011;11279;48.364;10.904;2023-10-31T01:48:39;1.40;;;1.30;;
22219;SDS011;11279;48.364;10.904;2023-10-31T01:49:40;1.50;;;1.30;;
22219;SDS011;11279;48.364;10.904;2023-10-31T01:50:40;1.13;;;1.13;;
22219;SDS011;11279;48.364;10.904;2023-10-31T01:51:41;2.80;;;1.43;;
22219;SDS011;11279;48.364;10.904;2023-10-31T01:52:42;1.47;;;1.30;;
22219;SDS011;11279;48.364;10.904;2023-10-31T01:53:42;3.03;;;1.30;;
22219;SDS011;11279;48.364;10.904;2023-10-31T01:54:43;1.30;;;1.20;;
22219;SDS011;11279;48.364;10.904;2023-10-31T01:55:45;1.83;;;1.50;;
22219;SDS011;11279;48.364;10.904;2023-10-31T01:56:46;1.42;;;1.20;;
22219;SDS011;11279;48.364;10.904;2023-10-31T01:57:48;1.30;;;1.20;;
22219;SDS011;11279;48.364;10.904;2023-10-31T01:58:49;1.60;;;1.20;;
22219;SDS011;11279;48.364;10.904;2023-10-31T01:59:49;1.27;;;1.10;;
22219;SDS011;11279;48.364;10.904;2023-10-31T02:00:50;2.40;;;1.10;;
22219;SDS011;11279;48.364;10.904;2023-10-31T02:01:51;1.10;;;1.00;;
22219;SDS011;11279;48.364;10.904;2023-10-31T02:02:51;1.10;;;1.00;;
22219;SDS011;11279;48.364;10.904;2023-10-31T02:03:53;2.37;;;1.10;;
22219;SDS011;11279;48.364;10.904;2023-10-31T02:04:53;1.30;;;1.10;;
22219;SDS011;11279;48.364;10.904;2023-10-31T02:05:54;1.50;;;1.20;;
22219;SDS011;11279;48.364;10.904;2023-10-31T02:06:54;1.67;;;1.10;;
22219;SDS011;11279;48.364;10.904;2023-10-31T02:07:55;1.77;;;1.07;;
22219;SDS011;11279;48.364;10.904;2023-10-31T02:08:55;2.17;;;1.23;;
22219;SDS011;11279;48.364;10.904;2023-10-31T02:09:56;1.00;;;1.00;;
22219;SDS011;11279;48.364;10.904;2023-10-31T02:10:56;0.97;;;0.97;;
22219;SDS011;11279;48.364;10.904;2023-10-31T02:11:57;1.13;;;1.07;;
22219;SDS011;11279;48.364;10.904;2023-10-31T02:12:57;1.20;;;1.10;;
22219;SDS011;11279;48.364;10.904;2023-10-31T02:13:58;1.40;;;1.13;;
22219;SDS011;11279;48.364;10.904;2023-10-31T02:14:58;0.90;;;0.90;;
22219;SDS011;11279;48.364;10.904;2023-10-31T02:15:59;1.53;;;1.17;;
22219;SDS011;11279;48.364;10.904;2023-10-31T02:16:59;1.17;;;1.00;;
22219;SDS011;11279;48.364;10.904;2023-10-31T02:18:00;1.73;;;1.13;;
22219;SDS011;11279;48.364;10.904;2023-10-31T02:19:00;1.10;;;1.10;;
22219;SDS011;11279;48.364;10.904;2023-10-31T02:20:01;2.50;;;1.23;;
22219;SDS011;11279;48.364;10.904;2023-10-31T02:21:01;2.77;;;1.17;;
22219;SDS011;11279;48.364;10.904;2023-10-31T02:22:02;2.27;;;1.30;;
22219;SDS011;11279;48.364;10.904;2023-10-31T02:23:03;1.10;;;1.00;;
22219;SDS011;11279;48.364;10.904;2023-10-31T02:24:04;1.40;;;1.10;;
22219;SDS011;11279;48.364;10.904;2023-10-31T02:25:15;1.80;;;1.10;;
22219;SDS011;11279;48.364;10.904;2023-10-31T02:26:16;3.70;;;1.10;;
22219;SDS011;11279;48.364;10.904;2023-10-31T02:27:16;2.00;;;1.33;;
22219;SDS011;11279;48.364;10.904;2023-10-31T02:28:17;1.83;;;1.10;;
22219;SDS011;11279;48.364;10.904;2023-10-31T02:29:17;1.33;;;1.10;;
22219;SDS011;11279;48.364;10.904;2023-10-31T02:30:17;2.33;;;1.13;;
22219;SDS011;11279;48.364;10.904;2023-10-31T02:31:18;2.00;;;1.10;;
22219;SDS011;11279;48.364;10.904;2023-10-31T02:32:18;1.23;;;1.00;;
22219;SDS011;11279;48.364;10.904;2023-10-31T02:33:19;1.20;;;1.10;;
22219;SDS011;11279;48.364;10.904;2023-10-31T02:34:19;1.03;;;1.03;;
22219;SDS011;11279;48.364;10.904;2023-10-31T02:35:20;1.67;;;1.10;;
22219;SDS011;11279;48.364;10.904;2023-10-31T02:36:21;2.13;;;1.30;;
22219;SDS011;11279;48.364;10.904;2023-10-31T02:37:21;2.30;;;1.70;;
22219;SDS011;11279;48.364;10.904;2023-10-31T02:38:22;3.97;;;1.23;;
22219;SDS011;11279;48.364;10.904;2023-10-31T02:39:22;2.17;;;1.33;;
22219;SDS011;11279;48.364;10.904;2023-10-31T02:40:23;1.40;;;1.30;;
22219;SDS011;11279;48.364;10.904;2023-10-31T02:41:23;1.90;;;1.53;;
22219;SDS011;11279;48.364;10.904;2023-10-31T02:42:24;2.43;;;1.07;;
22219;SDS011;11279;48.364;10.904;2023-10-31T02:43:24;1.20;;;1.10;;
22219;SDS011;11279;48.364;10.904;2023-10-31T02:44:24;1.50;;;1.17;;
22219;SDS011;11279;48.364;10.904;2023-10-31T02:45:25;2.33;;;1.30;;
22219;SDS011;11279;48.364;10.904;2023-10-31T02:46:25;1.87;;;1.20;;
22219;SDS011;11279;48.364;10.904;2023-10-31T02:47:26;3.97;;;1.20;;
22219;SDS011;11279;48.364;10.904;2023-10-31T02:48:26;1.37;;;1.30;;
22219;SDS011;11279;48.364;10.904;2023-10-31T02:49:27;0.87;;;0.83;;
22219;SDS011;11279;48.364;10.904;2023-10-31T02:50:27;1.67;;;1.10;;
22219;SDS011;11279;48.364;10.904;2023-10-31T02:51:28;1.23;;;1.13;;
22219;SDS011;11279;48.364;10.904;2023-10-31T02:52:28;1.40;;;1.30;;
22219;SDS011;11279;48.364;10.904;2023-10-31T02:53:29;1.23;;;1.00;;
22219;SDS011;11279;48.364;10.904;2023-10-31T02:54:29;1.33;;;0.93;;
22219;SDS011;11279;48.364;10.904;2023-10-31T02:55:29;1.63;;;1.13;;
22219;SDS011;11279;48.364;10.904;2023-10-31T02:56:30;1.40;;;1.30;;
22219;SDS011;11279;48.364;10.904;2023-10-31T02:57:30;1.43;;;1.20;;
22219;SDS011;11279;48.364;10.904;2023-10-31T02:58:31;1.20;;;1.10;;
22219;SDS011;11279;48.364;10.904;2023-10-31T02:59:31;1.47;;;1.37;;
22219;SDS011;11279;48.364;10.904;2023-10-31T03:00:32;4.17;;;1.00;;
22219;SDS011;11279;48.364;10.904;2023-10-31T03:01:32;1.93;;;0.83;;
22219;SDS011;11279;48.364;10.904;2023-10-31T03:02:32;2.90;;;1.20;;
22219;SDS011;11279;48.364;10.904;2023-10-31T03:03:33;2.30;;;1.20;;
22219;SDS011;11279;48.364;10.904;2023-10-31T03:04:33;1.40;;;1.30;;
22219;SDS011;11279;48.364;10.904;2023-10-31T03:05:34;2.00;;;1.10;;
22219;SDS011;11279;48.364;10.904;2023-10-31T03:06:34;1.13;;;1.00;;
22219;SDS011;11279;48.364;10.904;2023-10-31T03:07:35;1.53;;;1.00;;
22219;SDS011;11279;48.364;10.904;2023-10-31T03:08:35;1.50;;;1.10;;
22219;SDS011;11279;48.364;10.904;2023-10-31T03:09:36;1.70;;;1.30;;
22219;SDS011;11279;48.364;10.904;2023-10-31T03:10:37;1.47;;;0.90;;
22219;SDS011;11279;48.364;10.904;2023-10-31T03:11:38;1.20;;;1.10;;
22219;SDS011;11279;48.364;10.904;2023-10-31T03:12:38;1.20;;;1.10;;
22219;SDS011;11279;48.364;10.904;2023-10-31T03:13:39;2.13;;;1.20;;
22219;SDS011;11279;48.364;10.904;2023-10-31T03:14:39;2.57;;;1.00;;
22219;SDS011;11279;48.364;10.904;2023-10-31T03:15:40;2.30;;;1.10;;
22219;SDS011;11279;48.364;10.904;2023-10-31T03:16:40;1.13;;;1.00;;
22219;SDS011;11279;48.364;10.904;2023-10-31T03:17:41;1.90;;;1.10;;
22219;SDS011;11279;48.364;10.904;2023-10-31T03:18:41;2.03;;;1.40;;
22219;SDS011;11279;48.364;10.904;2023-10-31T03:19:41;1.60;;;1.30;;
22219;SDS011;11279;48.364;10.904;2023-10-31T03:20:44;1.20;;;1.10;;
22219;SDS011;11279;48.364;10.904;2023-10-31T03:21:46;1.35;;;1.23;;
22219;SDS011;11279;48.364;10.904;2023-10-31T03:22:46;2.03;;;1.00;;
22219;SDS011;11279;48.364;10.904;2023-10-31T03:23:47;3.80;;;1.03;;
22219;SDS011;11279;48.364;10.904;2023-10-31T03:24:49;1.55;;;1.20;;
22219;SDS011;11279;48.364;10.904;2023-10-31T03:25:49;1.97;;;1.10;;
22219;SDS011;11279;48.364;10.904;2023-10-31T03:26:49;2.07;;;1.07;;
22219;SDS011;11279;48.364;10.904;2023-10-31T03:27:50;1.67;;;1.30;;
22219;SDS011;11279;48.364;10.904;2023-10-31T03:28:50;2.03;;;1.17;;
22219;SDS011;11279;48.364;10.904;2023-10-31T03:29:51;1.27;;;1.07;;
22219;SDS011;11279;48.364;10.904;2023-10-31T03:30:51;3.07;;;1.10;;
22219;SDS011;11279;48.364;10.904;2023-10-31T03:31:52;2.03;;;1.00;;
22219;SDS011;11279;48.364;10.904;2023-10-31T03:32:52;1.03;;;0.93;;
22219;SDS011;11279;48.364;10.904;2023-10-31T03:33:53;1.10;;;1.00;;
22219;SDS011;11279;48.364;10.904;2023-10-31T03:34:53;1.63;;;1.10;;
22219;SDS011;11279;48.364;10.904;2023-10-31T03:35:54;1.57;;;1.20;;
22219;SDS011;11279;48.364;10.904;2023-10-31T03:36:55;1.47;;;1.03;;
22219;SDS011;11279;48.364;10.904;2023-10-31T03:37:55;5.37;;;1.30;;
22219;SDS011;11279;48.364;10.904;2023-10-31T03:38:55;1.37;;;1.20;;
22219;SDS011;11279;48.364;10.904;2023-10-31T03:39:56;2.70;;;1.17;;
22219;SDS011;11279;48.364;10.904;2023-10-31T03:40:56;1.80;;;1.20;;
22219;SDS011;11279;48.364;10.904;2023-10-31T03:41:57;1.43;;;1.10;;
22219;SDS011;11279;48.364;10.904;2023-10-31T03:42:57;1.17;;;0.93;;
22219;SDS011;11279;48.364;10.904;2023-10-31T03:43:57;1.67;;;1.20;;
22219;SDS011;11279;48.364;10.904;2023-10-31T03:44:58;2.40;;;1.20;;
22219;SDS011;11279;48.364;10.904;2023-10-31T03:45:58;3.60;;;1.20;;
22219;SDS011;11279;48.364;10.904;2023-10-31T03:46:59;1.40;;;1.30;;
22219;SDS011;11279;48.364;10.904;2023-10-31T03:47:59;1.83;;;1.20;;
22219;SDS011;11279;48.364;10.904;2023-10-31T03:49:00;1.57;;;1.33;;
22219;SDS011;11279;48.364;10.904;2023-10-31T03:50:00;1.87;;;1.33;;
22219;SDS011;11279;48.364;10.904;2023-10-31T03:51:01;1.90;;;1.00;;
22219;SDS011;11279;48.364;10.904;2023-10-31T03:52:01;1.23;;;1.13;;
22219;SDS011;11279;48.364;10.904;2023-10-31T03:53:01;2.07;;;0.97;;
22219;SDS011;11279;48.364;10.904;2023-10-31T03:54:02;1.90;;;1.03;;
22219;SDS011;11279;48.364;10.904;2023-10-31T03:55:03;1.87;;;1.30;;
22219;SDS011;11279;48.364;10.904;2023-10-31T03:56:03;1.10;;;1.00;;
22219;SDS011;11279;48.364;10.904;2023-10-31T03:57:04;2.13;;;1.03;;
22219;SDS011;11279;48.364;10.904;2023-10-31T03:58:05;1.33;;;1.03;;
22219;SDS011;11279;48.364;10.904;2023-10-31T03:59:05;1.53;;;1.10;;
22219;SDS011;11279;48.364;10.904;2023-10-31T04:00:06;3.13;;;1.10;;
22219;SDS011;11279;48.364;10.904;2023-10-31T04:01:07;1.63;;;1.20;;
22219;SDS011;11279;48.364;10.904;2023-10-31T04:02:07;1.17;;;1.00;;
22219;SDS011;11279;48.364;10.904;2023-10-31T04:03:08;1.10;;;1.00;;
22219;SDS011;11279;48.364;10.904;2023-10-31T04:04:08;3.37;;;1.27;;
22219;SDS011;11279;48.364;10.904;2023-10-31T04:05:09;1.33;;;0.90;;
22219;SDS011;11279;48.364;10.904;2023-10-31T04:06:09;1.77;;;1.27;;
22219;SDS011;11279;48.364;10.904;2023-10-31T04:07:10;1.33;;;1.10;;
22219;SDS011;11279;48.364;10.904;2023-10-31T04:08:10;2.50;;;1.20;;
22219;SDS011;11279;48.364;10.904;2023-10-31T04:09:11;5.37;;;1.20;;
22219;SDS011;11279;48.364;10.904;2023-10-31T04:10:11;1.10;;;1.00;;
22219;SDS011;11279;48.364;10.904;2023-10-31T04:11:12;0.87;;;0.83;;
22219;SDS011;11279;48.364;10.904;2023-10-31T04:12:12;2.17;;;1.00;;
22219;SDS011;11279;48.364;10.904;2023-10-31T04:13:12;1.93;;;1.07;;
22219;SDS011;11279;48.364;10.904;2023-10-31T04:14:13;3.50;;;0.80;;
22219;SDS011;11279;48.364;10.904;2023-10-31T04:15:13;2.40;;;1.00;;
22219;SDS011;11279;48.364;10.904;2023-10-31T04:16:14;1.70;;;1.23;;
22219;SDS011;11279;48.364;10.904;2023-10-31T04:17:14;1.60;;;1.00;;
22219;SDS011;11279;48.364;10.904;2023-10-31T04:18:15;1.07;;;0.97;;
22219;SDS011;11279;48.364;10.904;2023-10-31T04:19:16;1.20;;;1.10;;
22219;SDS011;11279;48.364;10.904;2023-10-31T04:20:17;2.53;;;1.27;;
22219;SDS011;11279;48.364;10.904;2023-10-31T04:21:17;1.77;;;1.03;;
22219;SDS011;11279;48.364;10.904;2023-10-31T04:22:17;0.87;;;0.83;;
22219;SDS011;11279;48.364;10.904;2023-10-31T04:23:18;1.93;;;1.00;;
22219;SDS011;11279;48.364;10.904;2023-10-31T04:24:18;1.63;;;1.10;;
22219;SDS011;11279;48.364;10.904;2023-10-31T04:25:19;3.43;;;1.00;;
22219;SDS011;11279;48.364;10.904;2023-10-31T04:26:19;3.53;;;1.13;;
22219;SDS011;11279;48.364;10.904;2023-10-31T04:27:20;1.00;;;0.90;;
22219;SDS011;11279;48.364;10.904;2023-10-31T04:28:20;1.50;;;1.00;;
22219;SDS011;11279;48.364;10.904;2023-10-31T04:29:20;3.57;;;1.10;;
22219;SDS011;11279;48.364;10.904;2023-10-31T04:30:21;2.17;;;0.93;;
22219;SDS011;11279;48.364;10.904;2023-10-31T04:33:47;1.42;;;0.98;;
22219;SDS011;11279;48.364;10.904;2023-10-31T04:34:48;2.60;;;1.00;;
22219;SDS011;11279;48.364;10.904;2023-10-31T04:35:48;2.20;;;0.90;;
22219;SDS011;11279;48.364;10.904;2023-10-31T04:36:48;1.30;;;0.93;;
22219;SDS011;11279;48.364;10.904;2023-10-31T04:37:49;1.23;;;1.10;;
22219;SDS011;11279;48.364;10.904;2023-10-31T04:38:49;1.70;;;0.90;;
22219;SDS011;11279;48.364;10.904;2023-10-31T04:39:50;0.80;;;0.80;;
22219;SDS011;11279;48.364;10.904;2023-10-31T04:40:50;1.37;;;0.80;;
22219;SDS011;11279;48.364;10.904;2023-10-31T04:41:51;2.93;;;1.03;;
22219;SDS011;11279;48.364;10.904;2023-10-31T04:42:51;2.77;;;1.20;;
22219;SDS011;11279;48.364;10.904;2023-10-31T04:43:52;2.70;;;1.20;;
22219;SDS011;11279;48.364;10.904;2023-10-31T04:44:52;2.33;;;1.00;;
22219;SDS011;11279;48.364;10.904;2023-10-31T04:45:52;4.50;;;1.07;;
22219;SDS011;11279;48.364;10.904;2023-10-31T04:46:53;2.73;;;1.00;;
22219;SDS011;11279;48.364;10.904;2023-10-31T04:47:53;1.90;;;0.80;;
22219;SDS011;11279;48.364;10.904;2023-10-31T04:48:54;1.10;;;1.00;;
22219;SDS011;11279;48.364;10.904;2023-10-31T04:49:54;2.30;;;0.97;;
22219;SDS011;11279;48.364;10.904;2023-10-31T04:50:55;1.63;;;0.97;;
22219;SDS011;11279;48.364;10.904;2023-10-31T04:51:56;1.83;;;1.00;;
22219;SDS011;11279;48.364;10.904;2023-10-31T04:52:57;3.50;;;1.00;;
22219;SDS011;11279;48.364;10.904;2023-10-31T04:53:57;1.87;;;0.77;;
22219;SDS011;11279;48.364;10.904;2023-10-31T04:54:58;4.00;;;0.70;;
22219;SDS011;11279;48.364;10.904;2023-10-31T04:55:58;2.80;;;1.07;;
22219;SDS011;11279;48.364;10.904;2023-10-31T04:56:59;2.63;;;0.98;;
22219;SDS011;11279;48.364;10.904;2023-10-31T04:58:00;2.23;;;1.10;;
22219;SDS011;11279;48.364;10.904;2023-10-31T04:59:00;2.43;;;1.17;;
22219;SDS011;11279;48.364;10.904;2023-10-31T05:00:00;0.97;;;0.93;;
22219;SDS011;11279;48.364;10.904;2023-10-31T05:01:01;3.17;;;1.00;;
22219;SDS011;11279;48.364;10.904;2023-10-31T05:02:01;2.40;;;0.93;;
22219;SDS011;11279;48.364;10.904;2023-10-31T05:03:02;1.20;;;0.93;;
22219;SDS011;11279;48.364;10.904;2023-10-31T05:04:03;1.23;;;1.00;;
22219;SDS011;11279;48.364;10.904;2023-10-31T05:05:03;8.43;;;1.73;;
22219;SDS011;11279;48.364;10.904;2023-10-31T05:06:04;1.13;;;1.00;;
22219;SDS011;11279;48.364;10.904;2023-10-31T05:07:05;3.63;;;1.02;;
22219;SDS011;11279;48.364;10.904;2023-10-31T05:08:06;2.17;;;1.20;;
22219;SDS011;11279;48.364;10.904;2023-10-31T05:09:06;2.07;;;1.37;;
22219;SDS011;11279;48.364;10.904;2023-10-31T05:10:07;1.37;;;1.13;;
22219;SDS011;11279;48.364;10.904;2023-10-31T05:11:07;2.87;;;1.20;;
22219;SDS011;11279;48.364;10.904;2023-10-31T05:12:08;3.53;;;1.10;;
22219;SDS011;11279;48.364;10.904;2023-10-31T05:13:08;1.20;;;1.10;;
22219;SDS011;11279;48.364;10.904;2023-10-31T05:14:09;0.90;;;0.90;;
22219;SDS011;11279;48.364;10.904;2023-10-31T05:15:12;2.30;;;0.93;;
22219;SDS011;11279;48.364;10.904;2023-10-31T05:16:12;1.60;;;1.10;;
22219;SDS011;11279;48.364;10.904;2023-10-31T05:17:13;1.73;;;1.30;;
22219;SDS011;11279;48.364;10.904;2023-10-31T05:18:13;1.23;;;0.90;;
22219;SDS011;11279;48.364;10.904;2023-10-31T05:19:14;3.90;;;1.17;;
22219;SDS011;11279;48.364;10.904;2023-10-31T05:20:14;1.87;;;1.30;;
22219;SDS011;11279;48.364;10.904;2023-10-31T05:21:18;2.37;;;1.17;;
22219;SDS011;11279;48.364;10.904;2023-10-31T05:22:20;2.47;;;1.17;;
22219;SDS011;11279;48.364;10.904;2023-10-31T05:23:21;6.03;;;1.10;;
22219;SDS011;11279;48.364;10.904;2023-10-31T05:24:21;2.53;;;1.27;;
22219;SDS011;11279;48.364;10.904;2023-10-31T05:25:21;1.63;;;0.90;;
22219;SDS011;11279;48.364;10.904;2023-10-31T05:26:22;2.13;;;1.10;;
22219;SDS011;11279;48.364;10.904;2023-10-31T05:27:22;1.23;;;1.00;;
22219;SDS011;11279;48.364;10.904;2023-10-31T05:28:23;3.07;;;1.30;;
22219;SDS011;11279;48.364;10.904;2023-10-31T05:29:23;2.23;;;1.20;;
22219;SDS011;11279;48.364;10.904;2023-10-31T05:30:24;1.17;;;1.07;;
22219;SDS011;11279;48.364;10.904;2023-10-31T05:31:25;3.47;;;1.30;;
22219;SDS011;11279;48.364;10.904;2023-10-31T05:32:25;1.23;;;1.10;;
22219;SDS011;11279;48.364;10.904;2023-10-31T05:33:26;2.00;;;1.27;;
22219;SDS011;11279;48.364;10.904;2023-10-31T05:34:26;2.73;;;1.20;;
22219;SDS011;11279;48.364;10.904;2023-10-31T05:35:27;2.60;;;1.30;;
22219;SDS011;11279;48.364;10.904;2023-10-31T05:36:27;3.57;;;1.20;;
22219;SDS011;11279;48.364;10.904;2023-10-31T05:37:28;3.00;;;1.27;;
22219;SDS011;11279;48.364;10.904;2023-10-31T05:38:28;3.53;;;1.30;;
22219;SDS011;11279;48.364;10.904;2023-10-31T05:39:29;3.87;;;1.20;;
22219;SDS011;11279;48.364;10.904;2023-10-31T05:40:29;5.10;;;1.47;;
22219;SDS011;11279;48.364;10.904;2023-10-31T05:41:29;2.83;;;1.20;;
22219;SDS011;11279;48.364;10.904;2023-10-31T05:42:30;3.30;;;1.10;;
22219;SDS011;11279;48.364;10.904;2023-10-31T05:43:31;3.17;;;1.30;;
22219;SDS011;11279;48.364;10.904;2023-10-31T05:44:31;5.10;;;1.30;;
22219;SDS011;11279;48.364;10.904;2023-10-31T05:45:32;2.27;;;1.20;;
22219;SDS011;11279;48.364;10.904;2023-10-31T05:46:40;1.90;;;1.20;;
22219;SDS011;11279;48.364;10.904;2023-10-31T05:47:40;1.02;;;0.93;;
22219;SDS011;11279;48.364;10.904;2023-10-31T05:48:43;4.73;;;1.10;;
22219;SDS011;11279;48.364;10.904;2023-10-31T05:49:44;2.25;;;1.00;;
22219;SDS011;11279;48.364;10.904;2023-10-31T05:50:45;4.33;;;1.40;;
22219;SDS011;11279;48.364;10.904;2023-10-31T05:51:52;1.77;;;1.35;;
22219;SDS011;11279;48.364;10.904;2023-10-31T05:52:52;3.58;;;1.10;;
22219;SDS011;11279;48.364;10.904;2023-10-31T05:53:53;1.90;;;1.10;;
22219;SDS011;11279;48.364;10.904;2023-10-31T05:54:53;2.13;;;1.20;;
22219;SDS011;11279;48.364;10.904;2023-10-31T05:55:54;2.77;;;1.17;;
22219;SDS011;11279;48.364;10.904;2023-10-31T05:56:54;3.80;;;1.23;;
22219;SDS011;11279;48.364;10.904;2023-10-31T05:57:55;2.30;;;1.17;;
22219;SDS011;11279;48.364;10.904;2023-10-31T05:58:55;6.37;;;1.63;;
22219;SDS011;11279;48.364;10.904;2023-10-31T05:59:56;4.70;;;1.30;;
22219;SDS011;11279;48.364;10.904;2023-10-31T06:00:56;3.77;;;1.43;;
22219;SDS011;11279;48.364;10.904;2023-10-31T06:01:57;2.03;;;1.20;;